SBBE/BEL METAR and TAF weather

Enter ICAO airport designator
Station Type Date Time Source
SBBE METAR 2019/12/09 00:00 UTC NOAA

SBBE 090000Z 04008KT 9999 FEW020 SCT100 27/23 Q1011


Station Type Date Time Source
SBBE Decoded METAR 2019/12/09 00:00 UTC NOAA

Belem Aeroporto , Brazil (SBBE) 01-23S 048-29W 16M
Dec 08, 2019 - 07:00 PM EST / 2019.12.09 0000 UTC
Wind: from the NE (040 degrees) at 9 MPH (8 KT):0
Visibility: greater than 7 mile(s):0
Sky conditions: partly cloudy
Temperature: 80 F (27 C)
Dew Point: 73 F (23 C)
Relative Humidity: 78%
Pressure (altimeter): 29.85 in. Hg (1011 hPa)
ob: SBBE 090000Z 04008KT 9999 FEW020 SCT100 27/23 Q1011
cycle: 0

Station Type Date Time Source
SBBE TAF 2019/12/09 00:00 UTC NOAA

TAF SBBE 082115Z 0900/0924 04010KT 9999 FEW030 TN24/0908Z TX31/0917Z
BECMG 0901/0903 06005KT CAVOK
BECMG 0909/0911 08010KT 9999 SCT020
BECMG 0914/0916 05010KT BKN025 FEW035TCU PROB30 0917/0920 8000 TS BKN020 FEW025CB
BECMG 0920/0922 SCT025
RMK PGB

Example: see airport list